Daniels, Idaho
Current Conditions -  °F | °C
As of 8:51 PM on Saturday 20 Dec 2014 (Local Time) from KLGU Reporting Station
Light Rain Light Rain  
Wind Chill: 36°   Ceiling: 3200
Heat Index: 39°   Visibility: 10mi
Dew Point: 34°   Wind: 5mph
Humidity: 82%   Direction: 120°ESE
Pressure: 30.03"   Gusts: NA
Location:  42.2285°N, 112.313°W
Report Text: KLGU 210351Z AUTO 12004KT 10SM -RA OVC032 04/01 A3003 RMK AO2 RAB34 SLP172 P0000 T00390011
Loading
Personal Weather Stations






























Interactive Weather Map New forecast layout! Learn more

10-Day Weather Forecast

Advertisements
Track Severe Weather on mobile